Time;durP1;ratioP1;P1;durP2;ratioP2;P2;SDS_P1;SDS_P2;PMS_P1;PMS_P2;Temp;Humidity;BMP_temperature;BMP_pressure;BME280_temperature;BME280_humidity;BME280_pressure;Samples;Min_cycle;Max_cycle;Signal;HPM_P1;HPM_P2
2022/04/29 00:02:15;;;;;;;9.80;5.97;;;10.90;99.90;;;;;;5073158;28;20453;-77
2022/04/29 00:04:42;;;;;;;10.60;6.60;;;10.90;99.90;;;;;;5073140;28;20419;-77
2022/04/29 00:07:09;;;;;;;10.27;6.20;;;10.90;99.90;;;;;;5072709;28;20435;-78
2022/04/29 00:09:36;;;;;;;9.90;5.83;;;10.90;99.90;;;;;;5072936;28;20909;-77
2022/04/29 00:12:03;;;;;;;8.53;5.23;;;10.90;99.90;;;;;;5072994;28;20566;-78
2022/04/29 00:14:30;;;;;;;9.33;6.40;;;10.80;99.90;;;;;;5073403;28;20958;-77
2022/04/29 00:16:56;;;;;;;13.07;7.47;;;10.80;99.90;;;;;;5073370;28;20437;-77
2022/04/29 00:19:22;;;;;;;9.17;5.90;;;10.80;99.90;;;;;;5073234;28;20938;-77
2022/04/29 00:21:48;;;;;;;9.50;6.30;;;10.80;99.90;;;;;;5089852;28;20422;-77
2022/04/29 00:24:14;;;;;;;8.37;5.60;;;10.80;99.90;;;;;;5090126;28;20793;-77
2022/04/29 00:26:40;;;;;;;8.20;6.10;;;10.80;99.90;;;;;;5090458;28;20226;-78
2022/04/29 00:29:07;;;;;;;10.23;5.70;;;10.80;99.90;;;;;;5090802;28;20194;-77
2022/04/29 00:31:34;;;;;;;10.27;6.73;;;10.70;99.90;;;;;;5073192;28;20201;-78
2022/04/29 00:34:03;;;;;;;13.87;6.27;;;10.60;99.90;;;;;;5073734;28;20465;-77
2022/04/29 00:36:29;;;;;;;9.00;5.43;;;10.60;99.90;;;;;;5089998;28;20445;-78
2022/04/29 00:38:54;;;;;;;8.93;5.27;;;10.50;99.90;;;;;;5090861;28;20953;-78
2022/04/29 00:41:22;;;;;;;9.50;6.60;;;10.40;99.90;;;;;;5090366;28;20188;-78
2022/04/29 00:44:06;;;;;;;9.40;6.23;;;10.30;99.90;;;;;;5073895;28;20214;-78
2022/04/29 00:46:40;;;;;;;9.60;6.13;;;10.20;99.90;;;;;;5074239;28;20441;-78
2022/04/29 00:49:09;;;;;;;10.40;5.50;;;10.20;99.90;;;;;;5074381;28;20420;-78
2022/04/29 00:51:36;;;;;;;8.40;5.80;;;10.20;99.90;;;;;;5073584;28;20444;-78
2022/04/29 00:54:03;;;;;;;9.87;6.43;;;10.10;99.90;;;;;;5073599;28;20429;-77
2022/04/29 00:56:31;;;;;;;10.57;5.90;;;10.10;99.90;;;;;;5073221;28;20520;-78
2022/04/29 00:59:07;;;;;;;10.30;6.17;;;10.10;99.90;;;;;;5072997;28;20421;-78
2022/04/29 01:01:34;;;;;;;8.80;5.97;;;10.10;99.90;;;;;;5073085;28;20436;-77
2022/04/29 01:04:04;;;;;;;9.80;6.40;;;10.10;99.90;;;;;;5090167;28;20558;-78
2022/04/29 01:06:31;;;;;;;11.10;6.27;;;10.10;99.90;;;;;;5090006;28;20444;-77
2022/04/29 01:08:57;;;;;;;8.00;6.10;;;10.10;99.90;;;;;;5072772;28;20422;-77
2022/04/29 01:11:26;;;;;;;11.30;7.00;;;10.10;99.90;;;;;;5072818;28;20425;-78
2022/04/29 01:13:53;;;;;;;8.60;6.10;;;10.10;99.90;;;;;;5089563;28;20440;-77
2022/04/29 01:16:20;;;;;;;12.23;5.90;;;10.10;99.90;;;;;;5072798;28;20442;-78
2022/04/29 01:18:51;;;;;;;9.10;6.10;;;10.10;99.90;;;;;;5072159;28;20432;-77
2022/04/29 01:21:17;;;;;;;9.73;6.13;;;10.10;99.90;;;;;;5072621;28;20410;-78
2022/04/29 01:23:43;;;;;;;13.90;6.33;;;10.10;99.90;;;;;;5089520;28;20491;-77
2022/04/29 01:26:14;;;;;;;9.33;5.80;;;10.10;99.90;;;;;;5089389;28;20794;-77
2022/04/29 01:28:45;;;;;;;10.60;5.40;;;10.10;99.90;;;;;;5072412;28;20774;-78
2022/04/29 01:31:15;;;;;;;10.80;5.80;;;10.10;99.90;;;;;;5072036;28;20425;-78
2022/04/29 01:33:47;;;;;;;11.10;7.33;;;10.00;99.90;;;;;;5072479;28;20796;-77
2022/04/29 01:36:13;;;;;;;9.23;6.57;;;9.90;99.90;;;;;;5071855;28;20499;-78
2022/04/29 01:38:39;;;;;;;9.07;6.13;;;9.80;99.90;;;;;;5089206;28;20429;-77
2022/04/29 01:41:06;;;;;;;10.73;6.33;;;9.80;99.90;;;;;;5071397;28;20429;-77
2022/04/29 01:43:33;;;;;;;8.63;5.20;;;9.80;99.90;;;;;;5072325;28;20520;-77
2022/04/29 01:45:59;;;;;;;8.93;5.60;;;9.70;99.90;;;;;;5071988;28;20437;-77
2022/04/29 01:48:25;;;;;;;8.80;6.40;;;9.70;99.90;;;;;;5089102;28;20421;-78
2022/04/29 01:50:51;;;;;;;9.33;5.73;;;9.70;99.90;;;;;;5072042;28;20946;-78
2022/04/29 01:53:17;;;;;;;8.27;5.87;;;9.80;99.90;;;;;;5089323;28;20430;-78
2022/04/29 01:55:42;;;;;;;9.70;6.10;;;9.90;99.90;;;;;;5088521;28;20279;-78
2022/04/29 01:58:08;;;;;;;10.97;6.30;;;9.80;99.90;;;;;;5088922;28;20213;-77
2022/04/29 02:00:34;;;;;;;9.00;6.13;;;9.80;99.90;;;;;;5088713;28;20869;-77
2022/04/29 02:03:00;;;;;;;8.80;5.87;;;9.80;99.90;;;;;;5087898;28;20207;-77
2022/04/29 02:05:25;;;;;;;10.77;6.70;;;9.80;99.90;;;;;;5088119;28;20182;-78
2022/04/29 02:07:51;;;;;;;10.87;7.53;;;9.80;99.90;;;;;;5088651;28;20573;-77
2022/04/29 02:10:17;;;;;;;8.73;6.23;;;9.90;99.90;;;;;;5088508;28;20558;-78
2022/04/29 02:12:43;;;;;;;9.40;6.03;;;9.80;99.90;;;;;;5071308;28;20187;-78
2022/04/29 02:15:13;;;;;;;12.90;7.23;;;9.90;99.90;;;;;;5088631;28;20868;-77
2022/04/29 02:17:39;;;;;;;18.27;6.47;;;9.90;99.90;;;;;;5088300;28;21058;-77
2022/04/29 02:20:05;;;;;;;8.47;6.10;;;9.90;99.90;;;;;;5088590;28;20516;-78
2022/04/29 02:22:31;;;;;;;10.87;7.10;;;9.70;99.90;;;;;;5088293;28;20849;-77
2022/04/29 02:24:58;;;;;;;6.90;5.37;;;9.70;99.90;;;;;;5087579;28;20417;-78
2022/04/29 02:27:23;;;;;;;10.03;6.50;;;9.80;99.90;;;;;;5071598;28;20229;-77
2022/04/29 02:29:49;;;;;;;10.97;6.77;;;9.80;99.90;;;;;;5087884;28;20464;-77
2022/04/29 02:32:16;;;;;;;16.33;7.37;;;9.80;99.90;;;;;;5088040;28;20183;-77
2022/04/29 02:34:42;;;;;;;12.23;7.47;;;9.90;99.90;;;;;;5071375;28;20190;-78
2022/04/29 02:37:08;;;;;;;12.80;7.80;;;9.80;99.90;;;;;;5071246;28;20448;-77
2022/04/29 02:39:34;;;;;;;12.70;7.87;;;9.80;99.90;;;;;;5070845;28;20415;-77
2022/04/29 02:42:00;;;;;;;12.80;7.33;;;9.70;99.90;;;;;;5087868;28;20741;-77
2022/04/29 02:44:26;;;;;;;14.90;7.00;;;9.70;99.90;;;;;;5087976;28;20480;-77
2022/04/29 02:47:10;;;;;;;13.23;6.67;;;9.70;99.90;;;;;;5088005;28;20575;-78
2022/04/29 02:49:39;;;;;;;11.00;6.63;;;9.70;99.90;;;;;;5087913;28;20262;-77
2022/04/29 02:52:06;;;;;;;9.90;7.60;;;9.70;99.90;;;;;;5070860;28;20507;-78
2022/04/29 02:54:32;;;;;;;12.37;7.33;;;9.70;99.90;;;;;;5087677;28;20429;-77
2022/04/29 02:56:58;;;;;;;13.93;8.00;;;9.60;99.90;;;;;;5070993;28;20970;-77
2022/04/29 02:59:27;;;;;;;12.20;7.00;;;9.70;99.90;;;;;;5070266;28;20432;-77
2022/04/29 03:01:53;;;;;;;11.10;6.30;;;9.70;99.90;;;;;;5087452;28;20433;-77
2022/04/29 03:04:19;;;;;;;10.83;6.90;;;9.60;99.90;;;;;;5087723;28;20460;-77
2022/04/29 03:06:45;;;;;;;13.40;6.97;;;9.50;99.90;;;;;;5070721;28;20810;-77
2022/04/29 03:09:11;;;;;;;10.13;6.80;;;9.60;99.90;;;;;;5087607;28;20428;-77
2022/04/29 03:11:38;;;;;;;11.27;6.67;;;9.60;99.90;;;;;;5087060;28;20186;-77
2022/04/29 03:14:04;;;;;;;14.87;7.97;;;9.50;99.90;;;;;;5070920;28;20460;-78
2022/04/29 03:16:30;;;;;;;12.47;7.53;;;9.50;99.90;;;;;;5070917;28;20504;-77
2022/04/29 03:18:56;;;;;;;12.60;8.20;;;9.50;99.90;;;;;;5070629;28;20864;-78
2022/04/29 03:21:23;;;;;;;10.80;6.37;;;9.40;99.90;;;;;;5070614;28;20516;-77
2022/04/29 03:23:49;;;;;;;15.70;7.70;;;9.50;99.90;;;;;;5070820;28;20995;-77
2022/04/29 03:26:15;;;;;;;10.73;7.23;;;9.50;99.90;;;;;;5073575;28;20437;-76
2022/04/29 03:28:41;;;;;;;10.33;6.97;;;9.50;99.90;;;;;;5090345;28;20431;-78
2022/04/29 03:31:07;;;;;;;11.87;7.40;;;9.50;99.90;;;;;;5091501;28;20413;-78
2022/04/29 03:33:33;;;;;;;16.00;7.17;;;9.60;99.90;;;;;;5091326;28;20178;-78
2022/04/29 03:36:03;;;;;;;13.03;7.43;;;9.60;99.90;;;;;;5074300;28;20512;-77
2022/04/29 03:38:28;;;;;;;12.50;7.00;;;9.60;99.90;;;;;;5074595;28;20948;-78
2022/04/29 03:40:55;;;;;;;9.83;6.60;;;9.60;99.90;;;;;;5090977;28;20419;-78
2022/04/29 03:43:21;;;;;;;10.40;6.80;;;9.60;99.90;;;;;;5090750;28;20286;-78
2022/04/29 03:45:47;;;;;;;12.03;7.40;;;9.70;99.90;;;;;;5090743;28;20415;-78
2022/04/29 03:48:13;;;;;;;15.13;8.10;;;9.60;99.90;;;;;;5073855;28;20413;-78
2022/04/29 03:50:39;;;;;;;11.77;7.50;;;9.60;99.90;;;;;;5090719;28;20409;-78
2022/04/29 03:53:06;;;;;;;12.77;7.60;;;9.70;99.90;;;;;;5073843;28;21083;-78
2022/04/29 03:55:34;;;;;;;16.70;8.37;;;9.70;99.90;;;;;;5073733;28;20417;-77
2022/04/29 03:58:02;;;;;;;9.40;6.27;;;9.60;99.90;;;;;;5074171;28;20417;-77
2022/04/29 04:00:32;;;;;;;11.17;7.03;;;9.70;99.90;;;;;;5073412;28;20572;-78
2022/04/29 04:02:59;;;;;;;12.87;7.23;;;9.70;99.90;;;;;;5074163;28;20468;-77
2022/04/29 04:05:25;;;;;;;10.83;7.33;;;9.60;99.90;;;;;;5073918;28;20405;-78
2022/04/29 04:07:52;;;;;;;10.40;6.53;;;9.60;99.90;;;;;;5073859;28;20445;-77
2022/04/29 04:10:18;;;;;;;12.30;6.43;;;9.60;99.90;;;;;;5073864;28;21065;-78
2022/04/29 04:12:49;;;;;;;10.23;7.03;;;9.60;99.90;;;;;;5073975;28;20801;-78
2022/04/29 04:15:16;;;;;;;11.60;7.40;;;9.60;99.90;;;;;;5073580;28;20457;-78
2022/04/29 04:17:42;;;;;;;11.30;7.00;;;9.60;99.90;;;;;;5073590;28;20447;-78
2022/04/29 04:20:09;;;;;;;13.00;7.70;;;9.60;99.90;;;;;;5072894;28;20437;-77
2022/04/29 04:22:36;;;;;;;12.50;7.23;;;9.60;99.90;;;;;;5073237;28;20457;-78
2022/04/29 04:25:04;;;;;;;12.17;7.63;;;9.60;99.90;;;;;;5089934;28;20952;-77
2022/04/29 04:27:30;;;;;;;13.30;7.60;;;9.50;99.90;;;;;;5072911;28;20457;-77
2022/04/29 04:29:57;;;;;;;14.67;7.90;;;9.50;99.90;;;;;;5073167;28;20476;-77
2022/04/29 04:32:23;;;;;;;13.60;6.63;;;9.50;99.90;;;;;;5072736;28;20475;-77
2022/04/29 04:34:52;;;;;;;12.13;6.87;;;9.50;99.90;;;;;;5073213;28;20416;-77
2022/04/29 04:37:23;;;;;;;9.33;7.03;;;9.60;99.90;;;;;;5089346;28;20437;-77
2022/04/29 04:39:49;;;;;;;11.00;7.60;;;9.60;99.90;;;;;;5073138;28;20417;-78
2022/04/29 04:42:16;;;;;;;10.90;7.13;;;9.60;99.90;;;;;;5071784;28;20421;-78
2022/04/29 04:44:42;;;;;;;11.90;7.50;;;9.60;99.90;;;;;;5072910;28;20847;-78
2022/04/29 04:47:08;;;;;;;11.90;7.13;;;9.50;99.90;;;;;;5072571;28;20439;-78
2022/04/29 04:49:35;;;;;;;16.67;9.30;;;9.60;99.90;;;;;;5072943;28;20425;-77
2022/04/29 04:52:01;;;;;;;10.37;7.00;;;9.60;99.90;;;;;;5089391;28;20420;-77
2022/04/29 04:54:27;;;;;;;11.00;7.60;;;9.60;99.90;;;;;;5072657;28;20421;-78
2022/04/29 04:56:53;;;;;;;10.27;6.90;;;9.60;99.90;;;;;;5072765;28;20522;-77
2022/04/29 04:59:19;;;;;;;11.37;7.53;;;9.70;99.90;;;;;;5089186;28;20885;-77
2022/04/29 05:01:44;;;;;;;14.53;7.73;;;9.80;99.90;;;;;;5089431;28;20502;-78
2022/04/29 05:04:10;;;;;;;12.30;8.17;;;9.80;99.90;;;;;;5089117;28;20221;-78
2022/04/29 05:06:40;;;;;;;11.73;8.10;;;9.90;99.90;;;;;;5089306;28;20195;-77
2022/04/29 05:09:06;;;;;;;13.70;8.20;;;9.90;99.90;;;;;;5072223;28;20745;-77
2022/04/29 05:11:32;;;;;;;13.73;8.63;;;10.00;99.90;;;;;;5071845;28;20420;-77
2022/04/29 05:13:58;;;;;;;14.07;8.80;;;9.90;99.90;;;;;;5072135;28;20425;-77
2022/04/29 05:16:25;;;;;;;11.27;8.33;;;10.00;99.90;;;;;;5072401;28;20549;-77
2022/04/29 05:18:51;;;;;;;12.60;8.73;;;10.10;99.90;;;;;;5072510;28;20455;-77
2022/04/29 05:21:17;;;;;;;12.30;8.37;;;10.20;99.90;;;;;;5088990;28;20425;-77
2022/04/29 05:23:43;;;;;;;15.50;9.87;;;10.20;99.90;;;;;;5088759;28;20242;-77
2022/04/29 05:26:09;;;;;;;15.33;8.90;;;10.20;99.90;;;;;;5088687;28;20441;-77
2022/04/29 05:28:35;;;;;;;13.13;8.70;;;10.30;99.90;;;;;;5071876;28;20851;-77
2022/04/29 05:31:02;;;;;;;13.83;7.97;;;10.40;99.90;;;;;;5071844;28;20463;-77
2022/04/29 05:33:30;;;;;;;14.60;8.80;;;10.50;99.90;;;;;;5071964;28;20243;-76
2022/04/29 05:35:56;;;;;;;14.60;8.37;;;10.40;99.90;;;;;;5071766;28;20855;-77
2022/04/29 05:38:22;;;;;;;15.07;10.00;;;10.50;99.90;;;;;;5088495;28;20474;-77
2022/04/29 05:43:35;;;;;;;16.30;9.07;;;10.60;99.90;;;;;;5073535;28;20348;-76
2022/04/29 05:46:01;;;;;;;13.53;9.00;;;10.70;99.90;;;;;;5088544;28;21003;-77
2022/04/29 05:48:27;;;;;;;15.40;9.30;;;10.80;99.90;;;;;;5087897;28;20235;-77
2022/04/29 05:50:52;;;;;;;13.30;9.13;;;10.90;99.90;;;;;;5087776;28;20252;-77
2022/04/29 05:53:18;;;;;;;11.63;9.00;;;11.00;99.90;;;;;;5088574;28;20743;-77
2022/04/29 05:55:44;;;;;;;15.87;10.40;;;11.10;99.90;;;;;;5088232;28;20183;-77
2022/04/29 05:58:10;;;;;;;13.47;9.77;;;11.30;99.90;;;;;;5071146;28;20178;-77
2022/04/29 06:00:36;;;;;;;16.50;9.97;;;11.40;99.90;;;;;;5088375;28;20234;-77
2022/04/29 06:03:02;;;;;;;16.63;10.60;;;11.50;99.90;;;;;;5087976;28;20640;-77
2022/04/29 06:05:27;;;;;;;15.90;11.13;;;11.50;99.90;;;;;;5072553;28;20443;-77
2022/04/29 06:07:53;;;;;;;14.73;10.00;;;11.70;99.90;;;;;;5070857;28;20516;-77
2022/04/29 06:10:19;;;;;;;14.63;10.73;;;11.50;99.90;;;;;;5070417;28;20220;-77
2022/04/29 06:12:46;;;;;;;18.33;12.07;;;11.60;99.90;;;;;;5072016;28;20185;-78
2022/04/29 06:15:17;;;;;;;16.10;11.13;;;11.70;99.90;;;;;;5070911;28;20432;-79
2022/04/29 06:17:43;;;;;;;17.80;11.40;;;12.00;99.90;;;;;;5071639;28;20931;-78
2022/04/29 06:20:10;;;;;;;15.40;10.77;;;12.00;99.90;;;;;;5070452;28;20483;-79
2022/04/29 06:22:45;;;;;;;13.90;9.80;;;11.80;99.90;;;;;;5073066;28;20414;-79
2022/04/29 06:25:11;;;;;;;15.17;10.40;;;12.00;99.90;;;;;;5074327;28;20421;-79
2022/04/29 06:27:37;;;;;;;15.83;10.40;;;12.00;99.90;;;;;;5076391;28;20437;-79
2022/04/29 06:30:08;;;;;;;14.80;10.27;;;12.10;99.90;;;;;;5074890;28;20434;-79
2022/04/29 06:32:35;;;;;;;15.43;9.77;;;12.30;99.90;;;;;;5075242;28;20421;-80
2022/04/29 06:35:01;;;;;;;19.97;11.50;;;12.50;99.90;;;;;;5091861;28;20524;-81
2022/04/29 06:37:26;;;;;;;14.03;9.90;;;12.70;99.90;;;;;;5073464;28;20535;-81
2022/04/29 06:39:52;;;;;;;14.43;9.80;;;12.80;99.90;;;;;;5088536;28;20512;-80
2022/04/29 06:42:18;;;;;;;15.10;10.63;;;12.80;99.90;;;;;;5088409;28;20182;-80
2022/04/29 06:44:44;;;;;;;14.20;9.27;;;12.90;99.90;;;;;;5070191;28;20206;-80
2022/04/29 06:47:09;;;;;;;17.00;10.67;;;13.10;99.90;;;;;;5086938;28;20199;-80
2022/04/29 06:49:36;;;;;;;14.93;10.87;;;13.20;99.90;;;;;;5070121;28;20171;-80
2022/04/29 06:52:02;;;;;;;13.73;10.60;;;13.30;99.90;;;;;;5070307;28;20175;-80
2022/04/29 06:54:28;;;;;;;16.27;10.57;;;13.30;99.90;;;;;;5070450;28;20425;-80
2022/04/29 06:56:54;;;;;;;14.47;11.10;;;13.40;99.90;;;;;;5069971;28;20425;-80
2022/04/29 06:59:19;;;;;;;13.90;10.70;;;13.40;99.90;;;;;;5072146;28;20265;-80
2022/04/29 07:01:45;;;;;;;15.87;10.30;;;13.60;99.90;;;;;;5073591;28;20182;-79
2022/04/29 07:04:11;;;;;;;18.07;11.67;;;13.60;99.90;;;;;;5073882;28;20348;-80
2022/04/29 07:06:37;;;;;;;17.83;12.13;;;13.60;99.90;;;;;;5073579;28;20191;-80
2022/04/29 07:09:04;;;;;;;14.57;10.63;;;13.60;99.90;;;;;;5073993;28;20477;-80
2022/04/29 07:11:31;;;;;;;15.43;11.20;;;13.60;99.90;;;;;;5073814;28;20676;-80
2022/04/29 07:14:00;;;;;;;17.67;11.90;;;13.70;99.90;;;;;;5073103;28;20928;-79
2022/04/29 07:16:25;;;;;;;16.53;10.73;;;14.00;99.90;;;;;;5073754;28;20452;-78
2022/04/29 07:18:51;;;;;;;16.40;10.43;;;14.10;99.90;;;;;;5074250;28;20920;-79
2022/04/29 07:21:17;;;;;;;19.20;12.23;;;14.30;99.90;;;;;;5073613;28;20198;-79
2022/04/29 07:23:43;;;;;;;14.83;11.40;;;14.60;99.90;;;;;;5074164;28;20230;-78
2022/04/29 07:26:08;;;;;;;14.93;10.83;;;14.80;99.90;;;;;;5073951;28;20673;-78
2022/04/29 07:28:34;;;;;;;14.10;10.70;;;15.00;99.90;;;;;;5073713;28;20186;-78
2022/04/29 07:31:01;;;;;;;14.50;11.73;;;15.00;99.90;;;;;;5073295;28;20384;-78
2022/04/29 07:33:27;;;;;;;14.97;11.27;;;15.20;99.90;;;;;;5073285;28;20183;-78
2022/04/29 07:44:06;;;;;;;13.30;11.00;;;15.40;99.90;;;;;;5075292;28;20521;-78
2022/04/29 07:46:32;;;;;;;17.63;11.27;;;15.50;99.90;;;;;;5073384;28;20475;-79
2022/04/29 07:48:58;;;;;;;15.57;11.33;;;15.60;99.90;;;;;;5073974;28;20839;-78
2022/04/29 07:51:24;;;;;;;16.17;11.70;;;15.80;99.90;;;;;;5073832;28;20429;-78
2022/04/29 07:53:50;;;;;;;19.30;11.90;;;16.00;99.90;;;;;;5073431;28;20616;-78
2022/04/29 07:56:15;;;;;;;13.70;10.20;;;16.10;99.90;;;;;;5073979;28;20241;-78
2022/04/29 07:58:41;;;;;;;13.17;10.87;;;16.20;99.90;;;;;;5073751;28;20457;-78
2022/04/29 08:01:09;;;;;;;15.17;11.20;;;16.30;99.90;;;;;;5073873;28;20214;-79
2022/04/29 08:03:36;;;;;;;13.30;9.70;;;16.40;99.90;;;;;;5073552;28;20213;-79
2022/04/29 08:06:03;;;;;;;14.93;9.10;;;16.40;99.90;;;;;;5073682;28;20814;-78
2022/04/29 08:08:29;;;;;;;14.07;10.07;;;16.50;99.90;;;;;;5073319;28;20870;-78
2022/04/29 08:10:58;;;;;;;13.37;9.63;;;16.50;99.90;;;;;;5072298;28;20516;-79
2022/04/29 08:13:24;;;;;;;18.73;11.07;;;16.70;99.90;;;;;;5073671;28;20433;-79
2022/04/29 08:15:50;;;;;;;15.13;10.83;;;16.90;99.90;;;;;;5066825;28;20525;-79
2022/04/29 08:18:18;;;;;;;22.80;12.70;;;17.00;99.90;;;;;;5067571;28;20659;-78
2022/04/29 08:20:44;;;;;;;15.97;11.60;;;17.00;99.90;;;;;;5060320;28;20799;-78
2022/04/29 08:23:09;;;;;;;19.63;12.53;;;16.70;99.90;;;;;;5072446;28;20462;-79
2022/04/29 08:25:36;;;;;;;14.77;11.07;;;16.60;99.90;;;;;;5072481;28;20175;-78
2022/04/29 08:28:03;;;;;;;18.30;12.43;;;16.70;99.90;;;;;;5072908;28;20179;-78
2022/04/29 08:30:30;;;;;;;15.40;11.67;;;16.70;99.90;;;;;;5072166;28;20895;-78
2022/04/29 08:33:00;;;;;;;16.43;12.30;;;16.50;99.90;;;;;;5071598;28;20581;-78
2022/04/29 08:35:30;;;;;;;15.83;10.60;;;16.50;99.90;;;;;;5072421;28;20492;-79
2022/04/29 08:38:00;;;;;;;20.03;13.67;;;16.60;99.90;;;;;;5072034;28;20428;-78
2022/04/29 08:40:27;;;;;;;19.23;13.33;;;16.80;99.90;;;;;;5072484;28;20458;-78
2022/04/29 08:42:57;;;;;;;19.03;11.23;;;17.00;99.90;;;;;;5072574;28;20621;-78
2022/04/29 08:45:23;;;;;;;15.57;11.67;;;17.20;99.90;;;;;;5071031;28;20460;-79
2022/04/29 08:47:49;;;;;;;17.43;12.57;;;17.30;99.90;;;;;;5072088;28;20881;-79
2022/04/29 08:50:17;;;;;;;22.17;12.80;;;17.50;99.90;;;;;;5071594;28;20229;-78
2022/04/29 08:52:44;;;;;;;15.40;12.63;;;17.50;99.90;;;;;;5072120;28;20898;-78
2022/04/29 09:00:44;;;;;;;24.67;13.33;;;17.40;99.90;;;;;;5073279;28;20456;-79
2022/04/29 09:03:13;;;;;;;16.13;12.30;;;17.40;99.90;;;;;;5071118;28;20496;-79
2022/04/29 09:05:40;;;;;;;16.27;11.80;;;17.20;99.90;;;;;;5071900;28;20429;-78
2022/04/29 09:08:06;;;;;;;16.00;11.67;;;17.40;99.90;;;;;;5072239;28;20409;-79
2022/04/29 09:10:37;;;;;;;18.47;12.30;;;17.30;99.90;;;;;;5073228;28;20429;-79
2022/04/29 09:13:13;;;;;;;21.43;12.77;;;17.30;99.90;;;;;;5074113;28;20474;-80
2022/04/29 09:15:46;;;;;;;21.40;13.23;;;17.60;99.90;;;;;;5076297;28;20743;-80
2022/04/29 09:18:12;;;;;;;15.40;12.00;;;17.90;99.90;;;;;;5075893;28;20421;-79
2022/04/29 09:20:39;;;;;;;19.30;12.73;;;17.70;99.90;;;;;;5076142;28;20436;-79
2022/04/29 09:23:05;;;;;;;18.07;12.10;;;17.60;99.90;;;;;;5074339;28;20251;-80
2022/04/29 09:25:37;;;;;;;18.47;11.77;;;17.50;99.90;;;;;;5075883;28;20525;-79
2022/04/29 09:28:04;;;;;;;20.00;12.67;;;17.30;99.90;;;;;;5075011;28;20183;-80
2022/04/29 09:30:41;;;;;;;21.20;12.67;;;17.40;99.90;;;;;;5074651;28;20445;-81
2022/04/29 09:33:27;;;;;;;19.63;14.13;;;17.70;99.90;;;;;;5074653;28;20432;-79
2022/04/29 09:35:54;;;;;;;19.90;13.47;;;18.00;99.90;;;;;;5072496;28;20444;-79
2022/04/29 09:41:08;;;;;;;16.20;12.50;;;18.70;99.90;;;;;;5074822;28;20448;-78
2022/04/29 09:43:43;;;;;;;19.97;11.87;;;19.10;99.90;;;;;;5073109;28;20461;-79
2022/04/29 09:46:19;;;;;;;14.93;11.47;;;19.70;99.90;;;;;;5071516;28;20441;-80
2022/04/29 09:48:59;;;;;;;20.03;12.70;;;20.60;99.90;;;;;;5072024;28;20421;-79
2022/04/29 09:51:45;;;;;;;18.33;12.60;;;21.00;99.90;;;;;;5071460;28;20886;-79
2022/04/29 09:54:16;;;;;;;15.13;12.00;;;21.60;99.90;;;;;;5072505;28;20435;-79
2022/04/29 09:56:46;;;;;;;13.30;11.47;;;21.10;99.90;;;;;;5071592;28;20457;-79
2022/04/29 09:59:13;;;;;;;12.93;11.43;;;20.80;99.90;;;;;;5072173;28;20417;-80
2022/04/29 10:01:40;;;;;;;16.53;11.73;;;20.90;99.90;;;;;;5071202;28;20436;-79
2022/04/29 10:04:08;;;;;;;15.47;11.63;;;20.90;99.90;;;;;;5071571;28;20469;-80
2022/04/29 10:06:36;;;;;;;17.47;11.87;;;20.90;99.90;;;;;;5071453;28;20520;-80
2022/04/29 10:09:03;;;;;;;16.20;11.80;;;20.50;99.90;;;;;;5071886;28;20418;-79
2022/04/29 10:11:32;;;;;;;15.97;11.20;;;19.70;99.90;;;;;;5071004;28;20429;-79
2022/04/29 10:14:02;;;;;;;16.23;11.87;;;19.10;99.90;;;;;;5071371;28;20436;-80
2022/04/29 10:16:32;;;;;;;15.23;11.70;;;19.10;99.90;;;;;;5071423;28;20810;-79
2022/04/29 10:21:56;;;;;;;14.97;9.80;;;19.10;99.90;;;;;;5072508;28;20513;-79
2022/04/29 10:24:24;;;;;;;16.03;12.20;;;19.00;99.90;;;;;;5071894;28;20500;-79
2022/04/29 10:26:54;;;;;;;12.83;9.60;;;18.40;99.90;;;;;;5071316;28;20445;-79
2022/04/29 10:29:20;;;;;;;16.53;11.50;;;18.60;99.90;;;;;;5071223;28;20441;-79
2022/04/29 10:32:09;;;;;;;12.17;9.67;;;18.70;99.90;;;;;;5071434;28;20421;-79
2022/04/29 10:34:38;;;;;;;17.73;11.87;;;19.10;99.90;;;;;;5073601;28;20508;-79
2022/04/29 10:37:12;;;;;;;13.50;9.63;;;19.50;99.90;;;;;;5075494;28;20568;-79
2022/04/29 10:39:59;;;;;;;14.70;9.50;;;20.00;99.90;;;;;;5075202;28;20439;-79
2022/04/29 10:42:25;;;;;;;14.40;9.93;;;20.70;99.90;;;;;;5074470;28;21026;-79
2022/04/29 10:45:01;;;;;;;15.70;9.60;;;20.60;99.90;;;;;;5075817;28;21002;-79
2022/04/29 10:47:38;;;;;;;12.20;9.67;;;20.50;99.90;;;;;;5076126;28;20844;-79
2022/04/29 10:50:30;;;;;;;14.33;9.37;;;21.00;99.90;;;;;;5075392;28;20425;-79
2022/04/29 10:52:59;;;;;;;11.23;9.00;;;21.60;99.90;;;;;;5074154;28;20984;-81
2022/04/29 10:55:26;;;;;;;12.27;8.80;;;21.50;99.90;;;;;;5074867;28;20924;-81
2022/04/29 10:57:52;;;;;;;10.63;9.30;;;22.10;99.90;;;;;;5074424;28;21135;-80
2022/04/29 11:00:22;;;;;;;11.20;8.53;;;22.10;99.90;;;;;;5073980;28;20461;-81
2022/04/29 11:02:48;;;;;;;12.20;8.83;;;21.50;99.90;;;;;;5075260;28;20923;-79
2022/04/29 11:05:36;;;;;;;12.13;8.33;;;20.70;99.90;;;;;;5074306;28;20425;-80
2022/04/29 11:08:10;;;;;;;14.97;9.70;;;20.80;99.90;;;;;;5074782;28;20172;-81
2022/04/29 11:10:57;;;;;;;13.40;8.30;;;20.50;99.90;;;;;;5074618;28;20466;-80
2022/04/29 11:13:24;;;;;;;14.90;8.50;;;20.20;99.90;;;;;;5074873;28;20939;-80
2022/04/29 11:15:50;;;;;;;10.07;8.27;;;19.70;99.90;;;;;;5074429;28;20532;-81
2022/04/29 11:18:26;;;;;;;11.37;7.93;;;19.90;99.90;;;;;;5073594;28;20468;-80
2022/04/29 11:20:57;;;;;;;9.53;7.07;;;20.10;99.90;;;;;;5073679;28;20456;-79
2022/04/29 11:26:10;;;;;;;11.40;8.30;;;22.40;99.90;;;;;;5075128;28;20866;-79
2022/04/29 11:28:37;;;;;;;11.27;7.10;;;22.90;99.20;;;;;;5073535;28;20413;-79
2022/04/29 11:31:08;;;;;;;11.60;7.60;;;23.70;96.40;;;;;;5073717;28;20429;-79
2022/04/29 11:33:38;;;;;;;11.77;7.63;;;23.90;92.00;;;;;;5073779;28;20415;-80
2022/04/29 11:36:12;;;;;;;12.77;8.20;;;23.90;91.10;;;;;;5074107;28;20449;-79
2022/04/29 11:38:46;;;;;;;10.53;7.30;;;23.50;89.20;;;;;;5073826;28;20421;-79
2022/04/29 11:41:16;;;;;;;13.47;8.13;;;23.80;90.50;;;;;;5072948;28;20508;-79
2022/04/29 11:43:44;;;;;;;8.27;6.97;;;23.60;88.80;;;;;;5073813;28;20551;-79
2022/04/29 11:46:10;;;;;;;12.10;7.70;;;23.90;89.90;;;;;;5070493;28;20967;-79
2022/04/29 11:48:36;;;;;;;9.43;7.40;;;24.00;88.00;;;;;;5090542;28;20423;-79
2022/04/29 11:51:04;;;;;;;11.37;6.80;;;24.00;88.20;;;;;;5090238;28;20186;-79
2022/04/29 11:53:31;;;;;;;9.93;8.50;;;23.80;87.70;;;;;;5073387;28;20869;-79
2022/04/29 11:55:56;;;;;;;8.40;6.87;;;23.90;88.40;;;;;;5089974;28;20429;-79
2022/04/29 11:58:22;;;;;;;9.53;7.53;;;23.00;89.40;;;;;;5090609;28;20784;-80
2022/04/29 12:00:50;;;;;;;10.57;7.60;;;22.90;89.80;;;;;;5090004;28;20228;-80
2022/04/29 12:03:20;;;;;;;9.33;6.77;;;23.20;90.40;;;;;;5072995;28;20456;-81
2022/04/29 12:05:46;;;;;;;10.80;6.90;;;23.60;89.90;;;;;;5073607;28;20414;-81
2022/04/29 12:08:12;;;;;;;11.17;7.10;;;24.20;86.10;;;;;;5091698;28;20429;-81
2022/04/29 12:10:45;;;;;;;7.10;6.37;;;24.50;84.10;;;;;;5091494;28;20418;-81
2022/04/29 12:13:12;;;;;;;9.60;7.27;;;25.00;83.10;;;;;;5071632;28;20584;-81
2022/04/29 12:15:39;;;;;;;11.20;7.00;;;25.00;79.90;;;;;;5068604;28;20995;-80
2022/04/29 12:18:08;;;;;;;8.90;6.83;;;24.80;77.70;;;;;;5071802;28;20425;-80
2022/04/29 12:20:34;;;;;;;7.77;6.40;;;25.00;80.00;;;;;;5072421;28;20429;-80
2022/04/29 12:23:19;;;;;;;7.70;6.27;;;25.50;77.80;;;;;;5072983;28;20469;-83
2022/04/29 12:25:46;;;;;;;13.00;8.60;;;25.80;76.50;;;;;;5074137;28;20429;-81
2022/04/29 12:28:12;;;;;;;8.97;6.77;;;25.00;69.70;;;;;;5072610;22;20999;-86
2022/04/29 12:37:00;;;;;;;10.23;7.30;;;23.80;74.40;;;;;;5038474;28;20442;-86
2022/04/29 12:39:38;;;;;;;10.23;6.80;;;23.30;78.60;;;;;;5037153;28;20447;-86
2022/04/29 12:42:09;;;;;;;10.53;7.07;;;23.20;81.80;;;;;;5038028;28;20403;-86
2022/04/29 12:47:40;;;;;;;10.07;6.70;;;23.00;83.10;;;;;;5038339;28;20430;-86
2022/04/29 12:50:28;;;;;;;10.13;7.30;;;22.80;83.20;;;;;;5052655;28;20462;-86
2022/04/29 12:53:08;;;;;;;8.70;7.10;;;22.40;84.20;;;;;;5037074;28;20428;-87
2022/04/29 12:55:36;;;;;;;9.03;6.63;;;21.80;84.00;;;;;;5036574;28;20800;-86
2022/04/29 12:58:11;;;;;;;11.50;8.77;;;21.30;85.90;;;;;;5040415;28;20462;-86
2022/04/29 13:00:42;;;;;;;10.63;7.80;;;21.30;88.30;;;;;;5054580;28;20414;-86
2022/04/29 13:03:17;;;;;;;10.67;8.40;;;21.00;91.30;;;;;;5054119;28;20490;-86
2022/04/29 13:05:45;;;;;;;9.80;7.80;;;20.60;91.90;;;;;;5037630;28;20449;-86
2022/04/29 13:08:11;;;;;;;13.20;7.97;;;20.40;92.40;;;;;;5038697;28;20537;-86
2022/04/29 13:10:51;;;;;;;10.07;7.03;;;20.00;93.50;;;;;;5053851;28;20427;-86
2022/04/29 13:13:19;;;;;;;11.63;7.87;;;19.80;94.90;;;;;;5054110;28;20427;-86
2022/04/29 13:15:44;;;;;;;10.83;7.57;;;19.70;97.20;;;;;;5054186;28;20514;-86
2022/04/29 13:18:13;;;;;;;14.13;8.83;;;19.70;98.80;;;;;;5054229;28;20921;-86